Time;durP1;ratioP1;P1;durP2;ratioP2;P2;SDS_P1;SDS_P2;PMS_P1;PMS_P2;Temp;Humidity;BMP_temperature;BMP_pressure;BME280_temperature;BME280_humidity;BME280_pressure;Samples;Min_cycle;Max_cycle;Signal;HPM_P1;HPM_P2
2023/12/18 00:02:21;;;;;;;16.57;9.83;;;;;;;;;;5034325;28;20183;-68
2023/12/18 00:04:47;;;;;;;22.77;10.50;;;;;;;;;;5016498;28;20284;-68
2023/12/18 00:07:13;;;;;;;18.53;10.00;;;;;;;;;;5034412;28;20180;-68
2023/12/18 00:09:39;;;;;;;15.13;9.93;;;;;;;;;;5016597;28;20604;-68
2023/12/18 00:12:05;;;;;;;21.17;10.77;;;;;;;;;;5016523;28;20183;-68
2023/12/18 00:14:31;;;;;;;20.27;10.37;;;;;;;;;;5033927;28;20203;-68
2023/12/18 00:16:57;;;;;;;14.43;10.20;;;;;;;;;;5034075;28;20637;-68
2023/12/18 00:19:24;;;;;;;18.43;10.00;;;;;;;;;;5033899;28;20213;-68
2023/12/18 00:21:50;;;;;;;18.60;10.80;;;;;;;;;;5034045;28;20615;-68
2023/12/18 00:24:16;;;;;;;16.30;10.30;;;;;;;;;;5033758;28;20198;-68
2023/12/18 00:26:42;;;;;;;17.33;10.43;;;;;;;;;;5034138;28;20610;-68
2023/12/18 00:29:08;;;;;;;18.90;10.43;;;;;;;;;;5033794;28;20179;-68
2023/12/18 00:31:34;;;;;;;19.87;10.53;;;;;;;;;;5033839;28;20187;-68
2023/12/18 00:34:00;;;;;;;22.43;11.43;;;;;;;;;;5033550;28;20214;-67
2023/12/18 00:36:26;;;;;;;18.00;9.27;;;;;;;;;;5033814;28;20354;-68
2023/12/18 00:38:52;;;;;;;16.53;9.93;;;;;;;;;;5033949;28;20715;-68
2023/12/18 00:41:19;;;;;;;15.50;10.03;;;;;;;;;;5034280;28;20233;-68
2023/12/18 00:43:45;;;;;;;19.50;10.20;;;;;;;;;;5033843;28;20179;-68
2023/12/18 00:46:10;;;;;;;15.67;9.27;;;;;;;;;;5033751;28;20206;-67
2023/12/18 00:48:36;;;;;;;15.27;9.77;;;;;;;;;;5033659;28;20538;-68
2023/12/18 00:51:02;;;;;;;18.63;9.83;;;;;;;;;;5016117;28;20183;-68
2023/12/18 00:53:28;;;;;;;15.20;10.23;;;;;;;;;;5017529;28;20211;-68
2023/12/18 00:55:54;;;;;;;14.30;10.00;;;;;;;;;;5033630;28;20250;-67
2023/12/18 00:58:20;;;;;;;17.87;10.53;;;;;;;;;;5033562;28;20174;-68
2023/12/18 01:00:46;;;;;;;16.80;9.87;;;;;;;;;;5033780;28;20202;-68
2023/12/18 01:03:12;;;;;;;22.70;10.10;;;;;;;;;;5036044;28;20179;-68
2023/12/18 01:05:38;;;;;;;15.63;9.50;;;;;;;;;;5038119;28;20203;-68
2023/12/18 01:08:05;;;;;;;19.33;9.83;;;;;;;;;;5038431;28;20187;-68
2023/12/18 01:10:30;;;;;;;19.50;9.43;;;;;;;;;;5040099;28;20183;-68
2023/12/18 01:12:57;;;;;;;14.23;9.70;;;;;;;;;;5038825;28;20190;-67
2023/12/18 01:15:23;;;;;;;16.07;9.70;;;;;;;;;;5037248;28;20211;-67
2023/12/18 01:17:49;;;;;;;17.83;10.03;;;;;;;;;;5037852;28;20528;-68
2023/12/18 01:20:15;;;;;;;18.73;9.73;;;;;;;;;;5019851;28;20183;-68
2023/12/18 01:22:41;;;;;;;16.37;9.93;;;;;;;;;;5038037;28;20199;-68
2023/12/18 01:25:07;;;;;;;16.37;9.33;;;;;;;;;;5037350;28;20206;-68
2023/12/18 01:27:33;;;;;;;14.27;9.23;;;;;;;;;;5019789;28;20656;-69
2023/12/18 01:29:59;;;;;;;20.60;10.10;;;;;;;;;;5037363;28;20182;-67
2023/12/18 01:32:25;;;;;;;17.93;10.33;;;;;;;;;;5037199;28;20605;-68
2023/12/18 01:34:51;;;;;;;17.47;10.07;;;;;;;;;;5037195;28;20751;-68
2023/12/18 01:37:17;;;;;;;21.03;10.60;;;;;;;;;;5037527;28;20171;-68
2023/12/18 01:39:43;;;;;;;17.00;9.47;;;;;;;;;;5037074;28;20254;-68
2023/12/18 01:42:09;;;;;;;17.10;9.40;;;;;;;;;;5037602;28;20221;-68
2023/12/18 01:44:35;;;;;;;22.33;9.47;;;;;;;;;;5037051;28;20195;-68
2023/12/18 01:47:01;;;;;;;18.70;9.47;;;;;;;;;;5037242;28;20178;-68
2023/12/18 01:49:27;;;;;;;18.20;9.43;;;;;;;;;;5019204;28;20206;-68
2023/12/18 01:51:53;;;;;;;13.20;8.87;;;;;;;;;;5019095;28;20183;-67
2023/12/18 01:54:21;;;;;;;14.17;8.93;;;;;;;;;;5018696;28;20187;-68
2023/12/18 01:56:47;;;;;;;13.17;8.43;;;;;;;;;;5037307;28;20768;-67
2023/12/18 01:59:14;;;;;;;11.50;8.20;;;;;;;;;;5037051;28;20167;-67
2023/12/18 02:01:41;;;;;;;16.73;8.77;;;;;;;;;;5019317;28;20241;-67
2023/12/18 02:04:07;;;;;;;10.67;7.67;;;;;;;;;;5036683;28;20175;-68
2023/12/18 02:06:33;;;;;;;15.57;7.60;;;;;;;;;;5036449;28;20266;-67
2023/12/18 02:09:00;;;;;;;13.37;7.70;;;;;;;;;;5018721;28;20198;-68
2023/12/18 02:11:26;;;;;;;17.13;8.30;;;;;;;;;;5036311;28;20187;-67
2023/12/18 02:13:52;;;;;;;12.60;7.10;;;;;;;;;;5036051;28;20179;-68
2023/12/18 02:16:18;;;;;;;12.73;7.27;;;;;;;;;;5036051;28;20252;-68
2023/12/18 02:18:45;;;;;;;14.13;7.23;;;;;;;;;;5036357;28;20186;-68
2023/12/18 02:21:11;;;;;;;14.53;7.63;;;;;;;;;;5036454;28;20182;-68
2023/12/18 02:23:37;;;;;;;17.03;7.27;;;;;;;;;;5036032;28;20179;-68
2023/12/18 02:26:03;;;;;;;14.20;7.53;;;;;;;;;;5035933;28;20205;-68
2023/12/18 02:28:29;;;;;;;14.33;7.83;;;;;;;;;;5036048;28;20190;-68
2023/12/18 02:30:55;;;;;;;12.90;6.00;;;;;;;;;;5036184;28;20179;-68
2023/12/18 02:33:21;;;;;;;14.63;7.00;;;;;;;;;;5018264;28;20186;-68
2023/12/18 02:35:47;;;;;;;13.87;6.60;;;;;;;;;;5036140;28;20207;-68
2023/12/18 02:38:13;;;;;;;10.67;7.40;;;;;;;;;;5018149;28;20638;-68
2023/12/18 02:40:40;;;;;;;11.43;6.90;;;;;;;;;;5036490;28;20592;-67
2023/12/18 02:43:07;;;;;;;13.63;7.20;;;;;;;;;;5036475;28;20175;-68
2023/12/18 02:45:33;;;;;;;12.00;7.20;;;;;;;;;;5018708;28;20203;-67
2023/12/18 02:47:58;;;;;;;18.50;7.87;;;;;;;;;;5036363;28;20249;-68
2023/12/18 02:50:24;;;;;;;12.80;7.00;;;;;;;;;;5018370;28;20285;-68
2023/12/18 02:52:50;;;;;;;13.10;7.57;;;;;;;;;;5035986;28;20183;-67
2023/12/18 02:55:16;;;;;;;16.33;8.90;;;;;;;;;;5035554;28;20218;-67
2023/12/18 02:57:42;;;;;;;12.17;7.97;;;;;;;;;;5035795;28;20182;-68
2023/12/18 03:00:08;;;;;;;13.73;8.27;;;;;;;;;;5035495;28;20186;-68
2023/12/18 03:02:34;;;;;;;22.93;10.70;;;;;;;;;;5035518;28;20660;-68
2023/12/18 03:05:00;;;;;;;21.07;11.70;;;;;;;;;;5035360;28;20205;-68
2023/12/18 03:07:26;;;;;;;21.40;12.17;;;;;;;;;;5035329;28;20183;-68
2023/12/18 03:09:52;;;;;;;18.13;11.37;;;;;;;;;;5035210;28;20175;-68
2023/12/18 03:12:18;;;;;;;22.57;11.07;;;;;;;;;;5017206;28;20560;-68
2023/12/18 03:14:44;;;;;;;24.03;13.03;;;;;;;;;;5034870;28;20198;-68
2023/12/18 03:17:10;;;;;;;24.50;12.73;;;;;;;;;;5017182;28;20536;-68
2023/12/18 03:19:36;;;;;;;22.23;12.63;;;;;;;;;;5035315;28;20622;-68
2023/12/18 03:22:02;;;;;;;23.00;13.77;;;;;;;;;;5034751;28;20203;-67
2023/12/18 03:24:28;;;;;;;23.37;13.10;;;;;;;;;;5034903;28;20195;-68
2023/12/18 03:26:54;;;;;;;19.90;12.23;;;;;;;;;;5033929;28;20179;-68
2023/12/18 03:29:20;;;;;;;21.67;12.37;;;;;;;;;;5017076;28;20187;-68
2023/12/18 03:31:46;;;;;;;26.03;14.40;;;;;;;;;;5034985;28;20171;-68
2023/12/18 03:34:12;;;;;;;23.17;13.30;;;;;;;;;;5034647;28;20210;-69
2023/12/18 03:36:38;;;;;;;24.03;12.10;;;;;;;;;;5017096;28;20685;-68
2023/12/18 03:39:04;;;;;;;22.37;12.87;;;;;;;;;;5034860;28;20179;-69
2023/12/18 03:41:30;;;;;;;21.13;12.83;;;;;;;;;;5034736;28;20250;-69
2023/12/18 03:43:56;;;;;;;28.37;15.37;;;;;;;;;;5016921;28;20271;-69
2023/12/18 03:46:22;;;;;;;23.43;15.07;;;;;;;;;;5017041;28;20199;-69
2023/12/18 03:48:48;;;;;;;27.80;14.70;;;;;;;;;;5016977;28;20244;-69
2023/12/18 03:51:14;;;;;;;19.63;14.37;;;;;;;;;;5034765;28;20262;-68
2023/12/18 03:53:40;;;;;;;24.80;15.13;;;;;;;;;;5034402;28;20225;-68
2023/12/18 03:56:06;;;;;;;24.87;15.20;;;;;;;;;;5033925;28;20215;-69
2023/12/18 03:58:32;;;;;;;25.97;14.60;;;;;;;;;;5016266;28;20664;-68
2023/12/18 04:00:58;;;;;;;22.63;14.43;;;;;;;;;;5016263;28;20205;-69
2023/12/18 04:03:24;;;;;;;25.47;13.83;;;;;;;;;;5034159;28;20172;-68
2023/12/18 04:05:50;;;;;;;24.70;14.33;;;;;;;;;;5034104;28;20206;-68
2023/12/18 04:08:16;;;;;;;22.93;13.80;;;;;;;;;;5016498;28;20233;-68
2023/12/18 04:10:42;;;;;;;24.03;15.57;;;;;;;;;;5034207;28;20175;-67
2023/12/18 04:13:08;;;;;;;27.50;16.10;;;;;;;;;;5034831;28;20182;-68
2023/12/18 04:15:34;;;;;;;23.17;15.40;;;;;;;;;;5034161;28;20207;-68
2023/12/18 04:18:00;;;;;;;25.83;15.70;;;;;;;;;;5016200;28;20661;-67
2023/12/18 04:20:26;;;;;;;24.90;15.57;;;;;;;;;;5033764;28;20206;-68
2023/12/18 04:22:52;;;;;;;26.60;15.53;;;;;;;;;;5034292;28;20222;-68
2023/12/18 04:25:18;;;;;;;28.87;14.83;;;;;;;;;;5033802;28;20260;-68
2023/12/18 04:27:44;;;;;;;22.60;15.30;;;;;;;;;;5033877;28;20199;-67
2023/12/18 04:30:10;;;;;;;24.53;16.23;;;;;;;;;;5033738;28;20233;-68
2023/12/18 04:32:36;;;;;;;26.10;16.43;;;;;;;;;;5033700;28;20175;-68
2023/12/18 04:35:03;;;;;;;24.87;15.80;;;;;;;;;;5033514;28;20665;-68
2023/12/18 04:37:29;;;;;;;31.03;15.80;;;;;;;;;;5033454;28;20191;-68
2023/12/18 04:39:55;;;;;;;24.87;16.47;;;;;;;;;;5015835;28;20229;-68
2023/12/18 04:42:22;;;;;;;26.87;14.47;;;;;;;;;;5033618;28;20171;-68
2023/12/18 04:44:48;;;;;;;26.03;15.23;;;;;;;;;;5033501;28;20186;-67
2023/12/18 04:47:14;;;;;;;24.37;15.70;;;;;;;;;;5033552;28;20660;-68
2023/12/18 04:49:40;;;;;;;24.87;15.47;;;;;;;;;;5033933;28;20652;-68
2023/12/18 04:52:06;;;;;;;28.50;15.83;;;;;;;;;;5033465;28;20549;-68
2023/12/18 04:54:32;;;;;;;20.97;14.53;;;;;;;;;;5033352;28;20207;-68
2023/12/18 04:56:58;;;;;;;25.93;15.93;;;;;;;;;;5015507;28;20199;-68
2023/12/18 04:59:24;;;;;;;24.97;15.00;;;;;;;;;;5033529;28;20181;-67
2023/12/18 05:01:50;;;;;;;24.57;15.43;;;;;;;;;;5033212;28;20253;-68
2023/12/18 05:04:16;;;;;;;24.70;14.90;;;;;;;;;;5033690;28;20217;-68
2023/12/18 05:06:42;;;;;;;29.63;15.00;;;;;;;;;;5015613;28;20187;-68
2023/12/18 05:09:08;;;;;;;22.60;15.17;;;;;;;;;;5033349;28;20178;-68
2023/12/18 05:11:34;;;;;;;19.27;13.20;;;;;;;;;;5033103;28;20233;-68
2023/12/18 05:14:00;;;;;;;22.43;14.73;;;;;;;;;;5033687;28;20187;-68
2023/12/18 05:16:26;;;;;;;22.00;13.50;;;;;;;;;;5032844;28;20214;-68
2023/12/18 05:18:53;;;;;;;18.97;13.57;;;;;;;;;;5033527;28;20250;-68
2023/12/18 05:21:20;;;;;;;26.57;14.77;;;;;;;;;;5033304;28;20175;-68
2023/12/18 05:23:47;;;;;;;23.80;14.17;;;;;;;;;;5033467;28;20182;-68
2023/12/18 05:26:13;;;;;;;23.73;14.70;;;;;;;;;;5033299;28;20195;-68
2023/12/18 05:28:39;;;;;;;23.20;14.50;;;;;;;;;;5034076;28;20642;-68
2023/12/18 05:31:08;;;;;;;24.53;14.70;;;;;;;;;;5034081;28;20211;-68
2023/12/18 05:33:34;;;;;;;24.53;14.80;;;;;;;;;;5033817;28;20672;-68
2023/12/18 05:36:00;;;;;;;25.47;14.17;;;;;;;;;;5015504;28;20211;-68
2023/12/18 05:38:26;;;;;;;23.07;13.33;;;;;;;;;;5015316;28;20183;-68
2023/12/18 05:40:52;;;;;;;22.53;14.43;;;;;;;;;;5033026;28;20180;-68
2023/12/18 05:43:18;;;;;;;23.93;14.00;;;;;;;;;;5015490;28;20176;-68
2023/12/18 05:45:44;;;;;;;29.43;14.30;;;;;;;;;;5033114;28;20234;-68
2023/12/18 05:48:10;;;;;;;23.60;15.23;;;;;;;;;;5032947;28;20259;-68
2023/12/18 05:50:36;;;;;;;29.07;13.97;;;;;;;;;;5018954;28;20649;-68
2023/12/18 05:53:02;;;;;;;25.10;15.03;;;;;;;;;;5018991;28;20561;-68
2023/12/18 05:55:28;;;;;;;25.70;15.40;;;;;;;;;;5018647;28;20284;-68
2023/12/18 05:57:54;;;;;;;23.97;15.57;;;;;;;;;;5036735;28;20226;-68
2023/12/18 06:00:20;;;;;;;30.20;15.70;;;;;;;;;;5018615;28;20653;-68
2023/12/18 06:02:46;;;;;;;25.57;15.83;;;;;;;;;;5018380;28;20258;-68
2023/12/18 06:05:12;;;;;;;24.90;15.37;;;;;;;;;;5018300;28;20237;-68
2023/12/18 06:07:38;;;;;;;29.80;16.53;;;;;;;;;;5036079;28;20292;-68
2023/12/18 06:10:04;;;;;;;27.23;16.30;;;;;;;;;;5036332;28;20528;-68
2023/12/18 06:12:30;;;;;;;26.80;16.17;;;;;;;;;;5036297;28;20262;-68
2023/12/18 06:14:56;;;;;;;27.17;16.30;;;;;;;;;;5036101;28;20265;-68
2023/12/18 06:17:22;;;;;;;24.87;16.37;;;;;;;;;;5018282;28;20254;-68
2023/12/18 06:19:48;;;;;;;28.03;17.00;;;;;;;;;;5036275;28;20207;-68
2023/12/18 06:22:14;;;;;;;31.63;16.90;;;;;;;;;;5035943;28;20175;-68
2023/12/18 06:24:40;;;;;;;23.70;15.90;;;;;;;;;;5036258;28;20203;-68
2023/12/18 06:27:06;;;;;;;22.93;14.90;;;;;;;;;;5018089;28;20187;-68
2023/12/18 06:29:32;;;;;;;23.03;16.50;;;;;;;;;;5036054;28;20187;-68
2023/12/18 06:31:58;;;;;;;26.30;16.93;;;;;;;;;;5017948;28;20564;-68
2023/12/18 06:34:24;;;;;;;28.10;18.43;;;;;;;;;;5035937;28;20183;-67
2023/12/18 06:36:50;;;;;;;30.33;16.30;;;;;;;;;;5017688;28;20211;-68
2023/12/18 06:39:16;;;;;;;26.80;16.23;;;;;;;;;;5035738;28;20668;-68
2023/12/18 06:41:42;;;;;;;29.10;17.40;;;;;;;;;;5017794;28;20270;-67
2023/12/18 06:44:08;;;;;;;24.93;15.70;;;;;;;;;;5035518;28;20182;-68
2023/12/18 06:46:34;;;;;;;26.00;16.10;;;;;;;;;;5035811;28;20183;-68
2023/12/18 06:49:01;;;;;;;31.10;16.27;;;;;;;;;;5035553;28;20179;-68
2023/12/18 06:51:27;;;;;;;29.67;17.53;;;;;;;;;;5017928;28;20209;-67
2023/12/18 06:53:53;;;;;;;25.80;16.13;;;;;;;;;;5018429;28;20626;-68
2023/12/18 06:56:19;;;;;;;28.93;16.87;;;;;;;;;;5035194;28;20250;-68
2023/12/18 06:58:45;;;;;;;28.63;18.03;;;;;;;;;;5017732;28;20179;-68
2023/12/18 07:01:11;;;;;;;30.47;18.07;;;;;;;;;;5035809;28;20242;-68
2023/12/18 07:03:37;;;;;;;26.40;17.40;;;;;;;;;;5047235;28;20168;-69
2023/12/18 07:06:03;;;;;;;27.80;19.13;;;;;;;;;;5055273;28;20254;-68
2023/12/18 07:08:29;;;;;;;33.07;19.83;;;;;;;;;;5055513;28;20179;-68
2023/12/18 07:10:57;;;;;;;30.60;19.40;;;;;;;;;;5055924;28;20174;-69
2023/12/18 07:13:23;;;;;;;36.43;19.37;;;;;;;;;;5054755;28;20167;-67
2023/12/18 07:15:49;;;;;;;26.17;18.87;;;;;;;;;;5054695;28;20582;-68
2023/12/18 07:18:14;;;;;;;30.63;19.10;;;;;;;;;;5054736;28;20179;-68
2023/12/18 07:20:44;;;;;;;31.03;19.37;;;;;;;;;;5054722;28;20175;-68
2023/12/18 07:23:10;;;;;;;32.40;20.23;;;;;;;;;;5049204;28;20183;-68
2023/12/18 07:25:36;;;;;;;27.93;16.73;;;;;;;;;;5035773;28;20226;-67
2023/12/18 07:28:07;;;;;;;31.83;19.47;;;;;;;;;;5035480;28;20206;-67
2023/12/18 07:30:33;;;;;;;29.20;19.03;;;;;;;;;;5017843;28;20205;-68
2023/12/18 07:32:59;;;;;;;33.53;19.67;;;;;;;;;;5018043;28;20183;-68
2023/12/18 07:35:25;;;;;;;35.53;19.37;;;;;;;;;;5017311;28;20589;-68
2023/12/18 07:37:52;;;;;;;30.80;19.93;;;;;;;;;;5017593;28;20182;-68
2023/12/18 07:40:17;;;;;;;32.10;19.63;;;;;;;;;;5035260;28;20175;-68
2023/12/18 07:42:43;;;;;;;32.60;17.60;;;;;;;;;;5035631;28;20183;-68
2023/12/18 07:45:10;;;;;;;33.23;19.10;;;;;;;;;;5035285;28;20202;-67
2023/12/18 07:47:37;;;;;;;27.73;18.20;;;;;;;;;;5017307;28;20230;-68
2023/12/18 07:50:04;;;;;;;34.93;19.07;;;;;;;;;;5017359;28;20179;-68
2023/12/18 07:52:30;;;;;;;36.37;19.63;;;;;;;;;;5034966;28;20183;-68
2023/12/18 07:54:56;;;;;;;31.00;18.03;;;;;;;;;;5016879;28;20225;-68
2023/12/18 07:57:22;;;;;;;30.10;19.30;;;;;;;;;;5035067;28;20250;-68
2023/12/18 07:59:48;;;;;;;31.77;17.23;;;;;;;;;;5035118;28;20203;-68
2023/12/18 08:02:14;;;;;;;26.13;17.60;;;;;;;;;;5034500;28;20201;-68
2023/12/18 08:04:41;;;;;;;27.97;17.53;;;;;;;;;;5037792;28;20249;-68
2023/12/18 08:07:06;;;;;;;27.00;17.57;;;;;;;;;;5034489;28;20179;-68
2023/12/18 08:09:33;;;;;;;28.80;18.23;;;;;;;;;;5034926;28;20528;-68
2023/12/18 08:11:58;;;;;;;29.67;17.10;;;;;;;;;;5034191;28;20179;-67
2023/12/18 08:14:25;;;;;;;33.83;18.20;;;;;;;;;;5017066;28;20183;-68
2023/12/18 08:16:51;;;;;;;28.90;17.17;;;;;;;;;;5034582;28;20590;-67
2023/12/18 08:19:17;;;;;;;31.93;18.30;;;;;;;;;;5034735;28;20171;-68
2023/12/18 08:21:43;;;;;;;33.33;18.20;;;;;;;;;;5034095;28;20209;-68
2023/12/18 08:24:09;;;;;;;28.53;17.37;;;;;;;;;;5034566;28;20180;-69
2023/12/18 08:26:35;;;;;;;28.13;17.37;;;;;;;;;;5034538;28;20182;-67
2023/12/18 08:29:04;;;;;;;32.17;18.87;;;;;;;;;;5034004;28;20189;-67
2023/12/18 08:31:30;;;;;;;31.60;19.00;;;;;;;;;;5068559;23;20650;-70
2023/12/18 08:33:56;;;;;;;30.50;19.03;;;;;;;;;;5056049;28;20174;-69
2023/12/18 08:36:22;;;;;;;35.43;19.17;;;;;;;;;;5055526;28;20194;-69
2023/12/18 08:38:48;;;;;;;35.17;19.27;;;;;;;;;;5037405;28;20650;-69
2023/12/18 08:41:14;;;;;;;30.83;19.03;;;;;;;;;;5037145;28;20198;-70
2023/12/18 08:43:42;;;;;;;32.40;19.10;;;;;;;;;;5054607;28;20170;-70
2023/12/18 08:46:08;;;;;;;34.53;17.70;;;;;;;;;;5036832;28;20279;-70
2023/12/18 08:48:33;;;;;;;31.47;19.13;;;;;;;;;;5038004;28;20213;-70
2023/12/18 08:50:59;;;;;;;32.40;19.90;;;;;;;;;;5038073;28;20638;-70
2023/12/18 08:53:25;;;;;;;32.73;18.50;;;;;;;;;;5056308;28;20707;-70
2023/12/18 08:55:52;;;;;;;29.07;17.50;;;;;;;;;;5055767;28;20206;-71
2023/12/18 08:58:20;;;;;;;31.37;18.97;;;;;;;;;;5056303;28;20174;-71
2023/12/18 09:00:46;;;;;;;33.07;20.97;;;;;;;;;;5055594;28;20194;-71
2023/12/18 09:03:12;;;;;;;33.10;20.37;;;;;;;;;;5056254;28;20537;-71
2023/12/18 09:05:38;;;;;;;34.43;20.50;;;;;;;;;;5055465;28;20595;-70
2023/12/18 09:08:05;;;;;;;37.93;21.70;;;;;;;;;;5055818;28;20182;-70
2023/12/18 09:10:33;;;;;;;34.27;20.70;;;;;;;;;;5037683;28;20178;-71
2023/12/18 09:12:59;;;;;;;28.57;19.10;;;;;;;;;;5037639;28;20683;-71
2023/12/18 09:15:25;;;;;;;33.83;20.03;;;;;;;;;;5055772;28;20233;-71
2023/12/18 09:17:51;;;;;;;35.53;21.93;;;;;;;;;;5055699;28;20179;-70
2023/12/18 09:20:17;;;;;;;32.33;20.50;;;;;;;;;;5037522;28;20558;-72
2023/12/18 09:22:46;;;;;;;32.73;19.77;;;;;;;;;;5037586;28;20186;-70
2023/12/18 09:25:11;;;;;;;32.50;20.47;;;;;;;;;;5040698;28;20183;-71
2023/12/18 09:27:37;;;;;;;32.13;20.17;;;;;;;;;;5058945;28;20217;-72
2023/12/18 09:30:05;;;;;;;29.90;19.77;;;;;;;;;;5041730;28;20186;-71
2023/12/18 09:32:31;;;;;;;38.00;22.33;;;;;;;;;;5059127;28;20680;-71
2023/12/18 09:34:57;;;;;;;37.27;22.53;;;;;;;;;;5059729;28;20185;-70
2023/12/18 09:37:23;;;;;;;35.47;21.93;;;;;;;;;;5059577;28;20175;-71
2023/12/18 09:39:49;;;;;;;37.70;21.10;;;;;;;;;;5059302;28;20281;-71
2023/12/18 09:42:15;;;;;;;32.20;21.00;;;;;;;;;;5059497;28;20688;-71
2023/12/18 09:44:41;;;;;;;31.77;20.57;;;;;;;;;;5059300;28;20183;-69
2023/12/18 09:47:07;;;;;;;29.13;19.67;;;;;;;;;;5059304;28;20185;-70
2023/12/18 09:49:34;;;;;;;34.93;19.97;;;;;;;;;;5041216;28;20179;-69
2023/12/18 09:52:01;;;;;;;33.70;20.20;;;;;;;;;;5058726;28;20325;-69
2023/12/18 09:54:28;;;;;;;33.90;21.10;;;;;;;;;;5059147;28;20175;-70
2023/12/18 09:56:54;;;;;;;30.97;19.90;;;;;;;;;;5059048;28;20263;-69
2023/12/18 09:59:20;;;;;;;28.53;20.70;;;;;;;;;;5040894;28;20323;-70
2023/12/18 10:01:46;;;;;;;29.93;20.57;;;;;;;;;;5039960;28;20230;-71
2023/12/18 10:04:12;;;;;;;33.00;19.90;;;;;;;;;;5040925;28;20239;-70
2023/12/18 10:06:39;;;;;;;27.87;19.63;;;;;;;;;;5040752;28;20186;-70
2023/12/18 10:09:09;;;;;;;26.63;18.97;;;;;;;;;;5041013;28;20186;-70
2023/12/18 10:11:35;;;;;;;30.43;20.47;;;;;;;;;;5058651;28;20673;-70
2023/12/18 10:14:01;;;;;;;31.83;21.07;;;;;;;;;;5039470;28;20346;-69
2023/12/18 10:16:27;;;;;;;33.73;19.83;;;;;;;;;;5057054;28;20541;-71
2023/12/18 10:18:53;;;;;;;30.93;20.13;;;;;;;;;;5040425;28;20186;-71
2023/12/18 10:21:25;;;;;;;29.53;19.33;;;;;;;;;;5058488;28;20209;-72
2023/12/18 10:23:52;;;;;;;35.93;21.13;;;;;;;;;;5040326;28;20178;-69
2023/12/18 10:26:18;;;;;;;30.37;18.53;;;;;;;;;;5040448;28;20213;-69
2023/12/18 10:28:45;;;;;;;30.07;19.17;;;;;;;;;;5058450;28;20175;-69
2023/12/18 10:31:12;;;;;;;33.00;21.37;;;;;;;;;;5058532;28;20218;-70
2023/12/18 10:33:38;;;;;;;31.97;21.03;;;;;;;;;;5040029;28;20230;-70
2023/12/18 10:36:06;;;;;;;32.20;20.40;;;;;;;;;;5039233;28;20202;-71
2023/12/18 10:38:36;;;;;;;28.93;18.77;;;;;;;;;;5058113;28;20645;-71
2023/12/18 10:41:04;;;;;;;33.97;21.07;;;;;;;;;;5057850;28;20186;-71
2023/12/18 10:43:32;;;;;;;27.80;19.53;;;;;;;;;;5039805;28;20554;-71
2023/12/18 10:45:59;;;;;;;32.10;19.83;;;;;;;;;;5057677;28;20175;-70
2023/12/18 10:48:26;;;;;;;30.60;19.07;;;;;;;;;;5039895;28;20217;-70
2023/12/18 10:50:55;;;;;;;28.07;17.40;;;;;;;;;;5057388;28;20230;-70
2023/12/18 10:53:21;;;;;;;29.73;17.57;;;;;;;;;;5058032;28;20194;-70
2023/12/18 10:55:51;;;;;;;27.77;18.03;;;;;;;;;;5057636;28;20198;-70
2023/12/18 10:58:18;;;;;;;29.77;17.90;;;;;;;;;;5040074;28;20189;-70
2023/12/18 11:00:44;;;;;;;26.97;17.77;;;;;;;;;;5039632;28;20202;-71
2023/12/18 11:03:12;;;;;;;30.43;18.40;;;;;;;;;;5057887;28;20175;-70
2023/12/18 11:05:39;;;;;;;29.37;15.70;;;;;;;;;;5039712;28;20636;-70
2023/12/18 11:08:05;;;;;;;26.30;16.20;;;;;;;;;;5039943;28;20184;-70
2023/12/18 11:10:31;;;;;;;21.67;14.40;;;;;;;;;;5058217;28;20239;-69
2023/12/18 11:13:07;;;;;;;27.00;16.37;;;;;;;;;;5039737;28;20220;-72
2023/12/18 11:15:44;;;;;;;22.53;15.60;;;;;;;;;;5058305;28;20206;-69
2023/12/18 11:18:34;;;;;;;24.77;15.40;;;;;;;;;;5039646;28;20174;-70
2023/12/18 11:21:01;;;;;;;25.00;15.97;;;;;;;;;;5039747;28;20202;-69
2023/12/18 11:23:27;;;;;;;23.43;15.77;;;;;;;;;;5057109;28;20181;-70
2023/12/18 11:25:53;;;;;;;25.27;15.10;;;;;;;;;;5056677;28;20191;-70
2023/12/18 11:28:24;;;;;;;23.13;15.10;;;;;;;;;;5055981;28;20621;-69
2023/12/18 11:30:51;;;;;;;24.00;15.80;;;;;;;;;;5038467;28;20241;-71
2023/12/18 11:33:17;;;;;;;25.07;14.67;;;;;;;;;;5038910;28;20182;-70
2023/12/18 11:35:48;;;;;;;21.40;14.57;;;;;;;;;;5056804;28;20603;-71
2023/12/18 11:38:21;;;;;;;28.93;15.10;;;;;;;;;;5056954;28;20229;-70
2023/12/18 11:40:52;;;;;;;25.70;15.47;;;;;;;;;;5056815;28;20675;-70
2023/12/18 11:43:34;;;;;;;21.40;14.60;;;;;;;;;;5038661;28;20178;-70
2023/12/18 11:46:01;;;;;;;24.30;14.83;;;;;;;;;;5038788;28;20604;-70
2023/12/18 11:48:27;;;;;;;20.90;14.20;;;;;;;;;;5056529;28;20706;-69
2023/12/18 11:50:53;;;;;;;18.47;11.97;;;;;;;;;;5056786;28;20202;-70
2023/12/18 11:53:30;;;;;;;21.53;14.13;;;;;;;;;;5056860;28;20237;-69
2023/12/18 11:55:56;;;;;;;20.73;13.40;;;;;;;;;;5056569;28;20194;-71
2023/12/18 11:58:26;;;;;;;20.17;13.90;;;;;;;;;;5056148;28;20190;-70
2023/12/18 12:00:52;;;;;;;24.37;15.03;;;;;;;;;;5038811;28;20285;-70
2023/12/18 12:03:19;;;;;;;20.07;13.97;;;;;;;;;;5038067;28;20178;-70
2023/12/18 12:05:46;;;;;;;20.10;13.67;;;;;;;;;;5056760;28;20171;-70
2023/12/18 12:08:12;;;;;;;23.80;14.63;;;;;;;;;;5056103;28;20182;-70
2023/12/18 12:10:42;;;;;;;20.73;12.63;;;;;;;;;;5055831;28;20199;-71
2023/12/18 12:13:08;;;;;;;22.50;13.83;;;;;;;;;;5038328;28;20206;-70
2023/12/18 12:15:34;;;;;;;20.70;12.93;;;;;;;;;;5056118;28;20202;-69
2023/12/18 12:18:04;;;;;;;20.03;13.40;;;;;;;;;;5038381;28;20244;-70
2023/12/18 12:20:31;;;;;;;20.87;13.83;;;;;;;;;;5055865;28;20174;-70
2023/12/18 12:22:57;;;;;;;21.97;14.27;;;;;;;;;;5056233;28;20174;-71
2023/12/18 12:25:22;;;;;;;21.87;12.63;;;;;;;;;;5037967;28;20235;-70
2023/12/18 12:27:48;;;;;;;20.13;13.50;;;;;;;;;;5056752;28;20532;-70
2023/12/18 12:30:14;;;;;;;21.20;12.40;;;;;;;;;;5038023;28;20182;-70
2023/12/18 12:32:40;;;;;;;19.93;13.13;;;;;;;;;;5038305;28;20225;-70
2023/12/18 12:35:11;;;;;;;19.20;12.73;;;;;;;;;;5037810;28;20186;-71
2023/12/18 12:37:37;;;;;;;20.60;13.00;;;;;;;;;;5056869;28;20162;-69
2023/12/18 12:40:07;;;;;;;23.87;12.97;;;;;;;;;;5037250;28;20213;-70
2023/12/18 12:42:35;;;;;;;19.67;12.17;;;;;;;;;;5055531;28;20272;-69
2023/12/18 12:45:01;;;;;;;22.83;13.17;;;;;;;;;;5037743;28;20179;-70
2023/12/18 12:47:27;;;;;;;20.10;13.13;;;;;;;;;;5037594;28;20273;-69
2023/12/18 12:49:53;;;;;;;19.27;12.10;;;;;;;;;;5037767;28;20653;-69
2023/12/18 12:52:19;;;;;;;22.23;13.73;;;;;;;;;;5037206;28;20265;-69
2023/12/18 12:54:45;;;;;;;23.47;13.60;;;;;;;;;;5055398;28;20260;-69
2023/12/18 12:57:12;;;;;;;18.10;13.13;;;;;;;;;;5055503;28;20683;-70
2023/12/18 12:59:50;;;;;;;23.23;13.40;;;;;;;;;;5062515;28;20178;-70
2023/12/18 13:02:16;;;;;;;18.90;12.23;;;;;;;;;;5044332;28;20671;-70
2023/12/18 13:04:42;;;;;;;21.93;13.83;;;;;;;;;;5062444;28;20197;-69
2023/12/18 13:07:08;;;;;;;19.83;12.97;;;;;;;;;;5044301;28;20182;-69
2023/12/18 13:09:34;;;;;;;22.30;14.20;;;;;;;;;;5044426;28;20644;-69
2023/12/18 13:12:04;;;;;;;20.40;13.10;;;;;;;;;;5062012;28;20209;-69
2023/12/18 13:14:30;;;;;;;19.47;13.47;;;;;;;;;;5044359;28;20251;-71
2023/12/18 13:16:56;;;;;;;23.10;12.70;;;;;;;;;;5044299;28;20202;-69
2023/12/18 13:19:22;;;;;;;16.93;11.83;;;;;;;;;;5062315;28;20671;-70
2023/12/18 13:21:48;;;;;;;19.97;13.53;;;;;;;;;;5061793;28;20190;-71
2023/12/18 13:24:14;;;;;;;24.33;14.10;;;;;;;;;;5062034;28;20523;-70
2023/12/18 13:26:40;;;;;;;21.67;12.47;;;;;;;;;;5043951;28;20178;-71
2023/12/18 13:29:06;;;;;;;23.20;13.97;;;;;;;;;;5062446;28;20194;-70
2023/12/18 13:31:33;;;;;;;16.20;11.57;;;;;;;;;;5061821;28;20305;-70
2023/12/18 13:33:59;;;;;;;21.03;13.87;;;;;;;;;;5043901;28;20179;-68
2023/12/18 13:36:25;;;;;;;19.90;13.03;;;;;;;;;;5061544;28;20236;-68
2023/12/18 13:38:51;;;;;;;20.53;12.90;;;;;;;;;;5061681;28;20179;-68
2023/12/18 13:41:17;;;;;;;19.87;13.63;;;;;;;;;;5042822;28;20230;-69
2023/12/18 13:43:43;;;;;;;19.50;12.47;;;;;;;;;;5043440;28;20174;-69
2023/12/18 13:46:10;;;;;;;18.43;12.67;;;;;;;;;;5061602;28;20564;-68
2023/12/18 13:48:36;;;;;;;16.80;12.20;;;;;;;;;;5043587;28;20231;-68
2023/12/18 13:51:02;;;;;;;16.40;12.60;;;;;;;;;;5043777;28;20685;-69
2023/12/18 13:53:28;;;;;;;18.57;12.63;;;;;;;;;;5061287;28;20182;-69
2023/12/18 13:55:54;;;;;;;24.83;15.50;;;;;;;;;;5061627;28;20289;-68
2023/12/18 13:58:20;;;;;;;21.87;16.87;;;;;;;;;;5061106;28;20201;-68
2023/12/18 14:00:47;;;;;;;20.57;15.00;;;;;;;;;;5043367;28;20700;-69
2023/12/18 14:03:14;;;;;;;19.67;12.67;;;;;;;;;;5045222;28;20197;-69
2023/12/18 14:05:40;;;;;;;21.50;13.73;;;;;;;;;;5045604;28;20186;-69
2023/12/18 14:08:06;;;;;;;24.40;15.30;;;;;;;;;;5062475;28;20596;-68
2023/12/18 14:10:32;;;;;;;19.97;13.60;;;;;;;;;;5061377;28;20182;-68
2023/12/18 14:12:58;;;;;;;19.90;12.57;;;;;;;;;;5040420;28;20324;-66
2023/12/18 14:15:24;;;;;;;21.03;13.13;;;;;;;;;;5058168;28;20206;-68